createdAt,value
2022-09-04T00:18:35.503Z,92.30
2022-09-04T00:21:16.991Z,92.24
2022-09-04T00:24:00.785Z,90.88
2022-09-04T00:27:09.188Z,90.69
2022-09-04T00:34:41.392Z,93.28
2022-09-04T00:48:32.712Z,92.36
2022-09-04T00:52:05.149Z,93.82
2022-09-04T01:07:15.703Z,94.78
2022-09-04T01:11:06.716Z,95.76
2022-09-04T01:28:56.386Z,97.65
2022-09-04T01:31:56.921Z,100.00
2022-09-04T01:35:27.131Z,99.49
2022-09-04T01:41:56.667Z,100.00
2022-09-04T01:44:31.455Z,100.00
2022-09-04T01:47:29.882Z,100.00
2022-09-04T01:51:02.707Z,100.00
2022-09-04T01:54:35.037Z,100.00
2022-09-04T01:57:51.127Z,100.00
2022-09-04T02:05:35.325Z,100.00
2022-09-04T02:08:50.234Z,100.00
2022-09-04T02:11:27.813Z,100.00
2022-09-04T02:14:45.870Z,100.00
2022-09-04T02:17:24.493Z,100.00
2022-09-04T02:20:09.602Z,100.00
2022-09-04T02:23:15.972Z,100.00
2022-09-04T02:26:02.219Z,100.00
2022-09-04T02:28:57.818Z,100.00
2022-09-04T02:31:57.897Z,100.00
2022-09-04T02:34:45.378Z,100.00
2022-09-04T02:37:48.885Z,100.00
2022-09-04T02:40:53.520Z,100.00
2022-09-04T02:43:44.063Z,100.00
2022-09-04T02:47:00.330Z,100.00
2022-09-04T02:53:29.918Z,100.00
2022-09-04T02:56:17.659Z,100.00
2022-09-04T02:59:33.452Z,100.00
2022-09-04T03:02:33.754Z,100.00
2022-09-04T03:06:06.320Z,100.00
2022-09-04T03:10:19.906Z,100.00
2022-09-04T03:17:53.468Z,100.00
2022-09-04T03:21:38.268Z,100.00
2022-09-04T03:25:04.743Z,100.00
2022-09-04T03:27:50.248Z,100.00
2022-09-04T03:30:34.062Z,100.00
2022-09-04T03:33:12.632Z,100.00
2022-09-04T03:36:55.916Z,100.00
2022-09-04T03:40:04.642Z,100.00
2022-09-04T03:42:58.120Z,100.00
2022-09-04T03:46:19.325Z,100.00
2022-09-04T03:49:49.714Z,100.00
2022-09-04T03:52:25.521Z,100.00
2022-09-04T03:55:14.359Z,100.00
2022-09-04T03:58:28.767Z,100.00
2022-09-04T04:01:24.882Z,100.00
2022-09-04T04:04:08.699Z,100.00
2022-09-04T04:07:26.329Z,100.00
2022-09-04T04:10:38.558Z,100.00
2022-09-04T04:13:29.854Z,100.00
2022-09-04T04:16:31.289Z,100.00
2022-09-04T04:19:54.252Z,100.00
2022-09-04T04:22:30.069Z,100.00
2022-09-04T04:25:33.952Z,100.00
2022-09-04T04:28:17.789Z,100.00
2022-09-04T04:32:30.740Z,100.00
2022-09-04T04:35:13.832Z,100.00
2022-09-04T04:38:43.114Z,100.00
2022-09-04T04:41:24.560Z,100.00
2022-09-04T04:44:13.593Z,100.00
2022-09-04T04:47:31.625Z,100.00
2022-09-04T04:50:23.125Z,100.00
2022-09-04T04:53:17.146Z,100.00
2022-09-04T04:55:57.199Z,100.00
2022-09-04T04:59:32.311Z,100.00
2022-09-04T05:03:43.167Z,100.00
2022-09-04T05:06:21.298Z,100.00
2022-09-04T05:09:15.034Z,100.00
2022-09-04T05:12:09.630Z,100.00
2022-09-04T05:15:20.211Z,100.00
2022-09-04T05:18:42.585Z,100.00
2022-09-04T05:22:17.084Z,100.00
2022-09-04T05:28:24.277Z,100.00
2022-09-04T05:31:12.410Z,100.00
2022-09-04T05:34:02.544Z,100.00
2022-09-04T05:36:42.778Z,100.00
2022-09-04T05:39:32.603Z,100.00
2022-09-04T05:42:20.114Z,100.00
2022-09-04T05:45:12.028Z,100.00
2022-09-04T05:48:19.329Z,100.00
2022-09-04T05:50:55.076Z,100.00
2022-09-04T05:53:58.076Z,100.00
2022-09-04T05:56:41.170Z,100.00
2022-09-04T05:59:37.769Z,100.00
2022-09-04T06:02:42.915Z,100.00
2022-09-04T06:05:23.376Z,100.00
2022-09-04T06:08:25.198Z,100.00
2022-09-04T06:11:25.827Z,100.00
2022-09-04T06:14:37.620Z,100.00
2022-09-04T06:17:23.293Z,100.00
2022-09-04T06:20:15.694Z,100.00
2022-09-04T06:23:05.983Z,100.00
2022-09-04T06:25:50.867Z,96.13
2022-09-04T06:28:46.880Z,92.96
2022-09-04T06:31:48.538Z,93.93
2022-09-04T06:34:38.496Z,99.21
2022-09-04T06:37:24.357Z,100.00
2022-09-04T06:40:17.955Z,100.00
2022-09-04T06:43:08.576Z,100.00
2022-09-04T06:46:10.947Z,100.00
2022-09-04T06:48:55.826Z,100.00
2022-09-04T06:51:42.996Z,100.00
2022-09-04T06:54:22.115Z,100.00
2022-09-04T06:57:14.799Z,100.00
2022-09-04T07:00:09.192Z,100.00
2022-09-04T07:03:07.238Z,100.00
2022-09-04T07:06:01.907Z,100.00
2022-09-04T07:08:40.927Z,100.00
2022-09-04T07:11:07.687Z,100.00
2022-09-04T07:14:10.046Z,100.00
2022-09-04T07:16:48.202Z,100.00
2022-09-04T07:19:35.017Z,99.64
2022-09-04T07:22:05.278Z,99.15
2022-09-04T07:25:01.400Z,98.48
2022-09-04T07:28:06.407Z,98.28
2022-09-04T07:30:41.890Z,97.40
2022-09-04T07:33:23.679Z,96.32
2022-09-04T07:36:20.894Z,96.26
2022-09-04T07:38:59.659Z,93.71
2022-09-04T07:41:46.827Z,93.13
2022-09-04T07:44:39.476Z,92.08
2022-09-04T07:47:55.281Z,92.16
2022-09-04T07:50:41.565Z,91.17
2022-09-04T07:53:34.462Z,90.63
2022-09-04T07:56:24.189Z,89.82
2022-09-04T07:59:03.684Z,89.76
2022-09-04T08:02:41.534Z,88.87
2022-09-04T08:05:26.656Z,89.43
2022-09-04T08:08:07.197Z,89.06
2022-09-04T08:11:08.264Z,87.28
2022-09-04T08:13:47.432Z,86.08
2022-09-04T08:16:17.410Z,86.12
2022-09-04T08:22:55.750Z,84.89
2022-09-04T08:25:30.391Z,83.97
2022-09-04T08:28:09.392Z,84.06
2022-09-04T08:30:50.996Z,82.95
2022-09-04T08:33:31.534Z,82.74
2022-09-04T08:36:22.340Z,81.96
2022-09-04T08:39:15.296Z,82.55
2022-09-04T08:42:18.185Z,81.40
2022-09-04T08:45:30.654Z,79.05
2022-09-04T08:48:15.252Z,79.06
2022-09-04T08:51:21.409Z,77.84
2022-09-04T08:54:03.309Z,79.08
2022-09-04T08:56:53.805Z,75.15
2022-09-04T08:59:54.801Z,75.10
2022-09-04T09:02:23.619Z,76.52
2022-09-04T09:05:05.389Z,75.87
2022-09-04T09:08:03.250Z,75.15
2022-09-04T09:11:03.143Z,74.39
2022-09-04T09:14:07.388Z,73.80
2022-09-04T09:16:57.173Z,73.61
2022-09-04T09:19:52.181Z,74.01
2022-09-04T09:23:08.830Z,71.32
2022-09-04T09:26:10.074Z,71.96
2022-09-04T09:28:57.042Z,71.20
2022-09-04T09:32:01.729Z,71.22
2022-09-04T09:35:12.022Z,68.99
2022-09-04T09:37:49.189Z,69.70
2022-09-04T09:40:47.200Z,68.15
2022-09-04T09:43:17.077Z,68.60
2022-09-04T09:46:19.909Z,67.56
2022-09-04T09:49:23.938Z,66.64
2022-09-04T09:52:16.141Z,67.36
2022-09-04T09:55:08.994Z,65.30
2022-09-04T09:57:39.164Z,64.24
2022-09-04T10:00:22.716Z,64.33
2022-09-04T10:03:10.728Z,63.72
2022-09-04T10:05:56.075Z,60.97
2022-09-04T10:09:09.361Z,60.79
2022-09-04T10:12:10.742Z,61.11
2022-09-04T10:14:48.714Z,59.71
2022-09-04T10:17:37.628Z,58.59
2022-09-04T10:20:36.649Z,58.69
2022-09-04T10:23:28.545Z,57.94
2022-09-04T10:26:17.293Z,57.13
2022-09-04T10:29:11.982Z,56.77
2022-09-04T10:31:50.163Z,55.82
2022-09-04T10:34:35.141Z,55.78
2022-09-04T10:37:47.453Z,56.21
2022-09-04T10:40:51.322Z,54.61
2022-09-04T10:43:36.282Z,53.99
2022-09-04T10:46:23.193Z,52.61
2022-09-04T10:49:33.836Z,51.99
2022-09-04T10:52:40.847Z,52.99
2022-09-04T10:55:21.143Z,53.53
2022-09-04T10:58:17.310Z,50.21
2022-09-04T11:01:05.857Z,51.27
2022-09-04T11:03:52.750Z,53.01
2022-09-04T11:07:10.609Z,52.97
2022-09-04T11:10:00.828Z,52.35
2022-09-04T11:13:06.672Z,52.72
2022-09-04T11:16:09.483Z,51.20
2022-09-04T11:18:55.096Z,51.25
2022-09-04T11:21:43.248Z,50.50
2022-09-04T11:24:48.807Z,49.24
2022-09-04T11:27:49.229Z,47.84
2022-09-04T11:30:26.204Z,49.13
2022-09-04T11:33:23.967Z,48.01
2022-09-04T11:36:19.231Z,47.75
2022-09-04T11:39:00.824Z,48.65
2022-09-04T11:42:18.130Z,46.76
2022-09-04T11:45:21.872Z,45.45
2022-09-04T11:48:13.422Z,45.62
2022-09-04T11:51:01.872Z,45.20
2022-09-04T11:54:00.688Z,44.76
2022-09-04T11:56:36.653Z,44.38
2022-09-04T11:59:34.674Z,43.14
2022-09-04T12:02:15.217Z,44.12
2022-09-04T12:05:03.450Z,43.94
2022-09-04T12:07:48.566Z,44.54
2022-09-04T12:10:36.374Z,45.12
2022-09-04T12:13:40.529Z,45.57
2022-09-04T12:16:27.250Z,45.51
2022-09-04T12:19:31.662Z,44.67
2022-09-04T12:22:19.099Z,44.47
2022-09-04T12:25:04.644Z,43.30
2022-09-04T12:28:00.050Z,42.53
2022-09-04T12:31:02.171Z,41.79
2022-09-04T12:34:12.948Z,42.40
2022-09-04T12:37:21.295Z,42.68
2022-09-04T12:39:53.921Z,40.98
2022-09-04T12:42:20.800Z,42.27
2022-09-04T12:45:18.194Z,41.04
2022-09-04T12:48:11.142Z,41.29
2022-09-04T12:50:49.983Z,40.35
2022-09-04T12:53:25.898Z,41.41
2022-09-04T12:56:15.804Z,40.63
2022-09-04T12:59:01.932Z,41.16
2022-09-04T13:01:47.402Z,40.23
2022-09-04T13:04:17.227Z,39.72
2022-09-04T13:07:11.061Z,40.81
2022-09-04T13:10:02.490Z,40.47
2022-09-04T13:12:38.377Z,40.42
2022-09-04T13:15:29.719Z,40.32
2022-09-04T13:18:02.502Z,40.64
2022-09-04T13:20:40.326Z,39.29
2022-09-04T13:23:37.058Z,40.22
2022-09-04T13:26:34.697Z,39.89
2022-09-04T13:29:26.178Z,37.82
2022-09-04T13:32:04.260Z,38.35
2022-09-04T13:34:49.759Z,36.95
2022-09-04T13:37:26.845Z,37.12
2022-09-04T13:40:16.842Z,32.57
2022-09-04T13:43:04.878Z,32.43
2022-09-04T13:45:41.625Z,30.57
2022-09-04T13:48:34.020Z,30.59
2022-09-04T13:51:13.730Z,31.43
2022-09-04T13:53:56.130Z,29.13
2022-09-04T13:56:34.798Z,29.32
2022-09-04T13:59:09.777Z,31.16
2022-09-04T14:01:46.107Z,29.77
2022-09-04T14:04:19.414Z,30.87
2022-09-04T14:06:48.003Z,31.64
2022-09-04T14:09:16.991Z,31.00
2022-09-04T14:11:50.698Z,32.22
2022-09-04T14:14:29.543Z,32.14
2022-09-04T14:17:02.662Z,32.34
2022-09-04T14:19:51.454Z,31.40
2022-09-04T14:22:42.178Z,31.77
2022-09-04T14:25:33.089Z,32.55
2022-09-04T14:28:20.891Z,32.31
2022-09-04T14:31:10.476Z,31.87
2022-09-04T14:33:49.236Z,32.43
2022-09-04T14:36:37.923Z,32.48
2022-09-04T14:39:24.428Z,32.56
2022-09-04T14:41:54.545Z,31.81
2022-09-04T14:44:52.489Z,31.45
2022-09-04T14:47:39.955Z,32.14
2022-09-04T14:50:10.024Z,31.33
2022-09-04T14:52:45.983Z,31.04
2022-09-04T14:55:34.812Z,31.28
2022-09-04T14:58:33.094Z,31.17
2022-09-04T15:01:17.303Z,32.26
2022-09-04T15:03:49.155Z,32.81
2022-09-04T15:06:25.326Z,32.48
2022-09-04T15:08:55.643Z,33.21
2022-09-04T15:11:34.809Z,32.92
2022-09-04T15:14:08.012Z,33.21
2022-09-04T15:16:40.145Z,33.18
2022-09-04T15:19:24.796Z,33.04
2022-09-04T15:22:04.664Z,33.39
2022-09-04T15:24:50.637Z,33.58
2022-09-04T15:27:32.707Z,34.29
2022-09-04T15:30:25.072Z,34.72
2022-09-04T15:33:10.353Z,35.08
2022-09-04T15:35:40.683Z,35.96
2022-09-04T15:38:26.132Z,35.04
2022-09-04T15:41:15.731Z,35.35
2022-09-04T15:43:47.555Z,35.64
2022-09-04T15:46:23.352Z,37.09
2022-09-04T15:48:56.382Z,37.06
2022-09-04T15:51:46.196Z,37.51
2022-09-04T15:54:40.708Z,37.46
2022-09-04T15:57:19.692Z,37.79
2022-09-04T16:00:01.240Z,36.32
2022-09-04T16:02:59.155Z,36.57
2022-09-04T16:05:51.299Z,36.63
2022-09-04T16:08:25.459Z,36.64
2022-09-04T16:11:16.254Z,37.37
2022-09-04T16:13:57.830Z,37.53
2022-09-04T16:17:01.268Z,37.63
2022-09-04T16:19:38.968Z,37.60
2022-09-04T16:22:19.412Z,37.17
2022-09-04T16:24:55.870Z,36.99
2022-09-04T16:27:28.228Z,37.42
2022-09-04T16:30:05.613Z,38.39
2022-09-04T16:32:38.915Z,38.12
2022-09-04T16:35:22.703Z,37.99
2022-09-04T16:37:58.215Z,37.61
2022-09-04T16:40:33.049Z,37.76
2022-09-04T16:43:12.055Z,38.23
2022-09-04T16:46:08.618Z,38.05
2022-09-04T16:48:45.028Z,39.64
2022-09-04T16:51:50.348Z,38.40
2022-09-04T16:54:28.763Z,39.17
2022-09-04T16:57:12.947Z,39.62
2022-09-04T16:59:49.451Z,39.42
2022-09-04T17:02:52.658Z,39.81
2022-09-04T17:05:49.410Z,40.62
2022-09-04T17:08:28.958Z,41.52
2022-09-04T17:11:11.228Z,40.52
2022-09-04T17:13:59.350Z,40.16
2022-09-04T17:16:52.642Z,40.21
2022-09-04T17:19:21.806Z,40.45
2022-09-04T17:28:54.219Z,41.02
2022-09-04T17:28:56.041Z,41.03
2022-09-04T17:29:10.935Z,41.33
2022-09-04T17:31:17.322Z,41.78
2022-09-04T17:36:50.630Z,41.93
2022-09-04T17:40:37.664Z,42.68
2022-09-04T17:40:40.195Z,42.95
2022-09-04T17:42:41.119Z,43.25
2022-09-04T17:45:52.356Z,43.44
2022-09-04T17:48:27.135Z,43.95
2022-09-04T17:50:58.536Z,43.86
2022-09-04T17:53:33.444Z,44.04
2022-09-04T17:56:18.076Z,44.83
2022-09-04T17:59:00.011Z,45.02
2022-09-04T18:01:34.784Z,45.55
2022-09-04T18:04:40.679Z,45.33
2022-09-04T18:07:28.611Z,45.29
2022-09-04T18:10:32.485Z,45.25
2022-09-04T18:13:36.347Z,45.05
2022-09-04T18:16:35.832Z,46.50
2022-09-04T18:19:40.285Z,45.46
2022-09-04T18:22:31.889Z,45.48
2022-09-04T18:25:18.251Z,45.46
2022-09-04T18:28:12.118Z,45.59
2022-09-04T18:37:15.726Z,46.13
2022-09-04T18:37:24.432Z,47.09
2022-09-04T18:37:25.654Z,46.85
2022-09-04T18:40:04.527Z,47.25
2022-09-04T18:50:23.364Z,47.43
2022-09-04T18:50:35.752Z,47.74
2022-09-04T18:51:05.777Z,47.84
2022-09-04T18:51:35.040Z,48.30
2022-09-04T18:54:25.414Z,49.74
2022-09-04T18:57:13.333Z,49.78
2022-09-04T18:59:45.512Z,49.96
2022-09-04T19:02:26.954Z,49.91
2022-09-04T19:05:02.119Z,50.79
2022-09-04T19:07:44.495Z,51.25
2022-09-04T19:10:31.351Z,52.72
2022-09-04T19:13:11.402Z,52.46
2022-09-04T19:15:51.147Z,52.41
2022-09-04T19:19:17.200Z,54.38
2022-09-04T19:21:58.373Z,53.17
2022-09-04T19:24:50.062Z,54.18
2022-09-04T19:27:28.162Z,54.66
2022-09-04T19:30:14.002Z,54.56
2022-09-04T19:33:32.165Z,56.62
2022-09-04T19:36:01.209Z,55.75
2022-09-04T19:45:57.095Z,57.30
2022-09-04T19:46:02.729Z,56.23
2022-09-04T19:46:19.899Z,56.71
2022-09-04T19:47:41.757Z,59.33
2022-09-04T19:53:21.909Z,59.79
2022-09-04T19:53:41.061Z,58.98
2022-09-04T19:56:23.543Z,58.76
2022-09-04T19:59:05.869Z,59.81
2022-09-04T20:01:49.492Z,59.79
2022-09-04T20:04:33.196Z,60.47
2022-09-04T20:07:10.652Z,60.96
2022-09-04T20:09:43.917Z,60.79
2022-09-04T20:12:50.892Z,64.14
2022-09-04T20:15:27.001Z,62.11
2022-09-04T20:18:11.822Z,62.44
2022-09-04T20:20:48.849Z,62.92
2022-09-04T20:23:34.880Z,63.62
2022-09-04T20:26:20.245Z,63.45
2022-09-04T20:28:59.710Z,63.03
2022-09-04T20:31:40.087Z,63.75
2022-09-04T20:34:22.494Z,63.40
2022-09-04T20:36:59.003Z,63.21
2022-09-04T20:39:35.126Z,62.88
2022-09-04T20:42:13.157Z,63.35
2022-09-04T20:45:20.340Z,64.05
2022-09-04T20:52:49.127Z,65.74
2022-09-04T20:52:50.478Z,64.90
2022-09-04T20:54:07.885Z,65.91
2022-09-04T20:59:32.158Z,64.76
2022-09-04T21:03:14.627Z,66.46
2022-09-04T21:03:35.405Z,65.06
2022-09-04T21:06:52.708Z,67.58
2022-09-04T21:09:55.064Z,66.46
2022-09-04T21:12:47.281Z,67.02
2022-09-04T21:15:27.804Z,67.49
2022-09-04T21:18:23.287Z,66.73
2022-09-04T21:21:00.239Z,67.18
2022-09-04T21:24:07.951Z,69.30
2022-09-04T21:26:55.434Z,70.36
2022-09-04T21:29:31.804Z,69.03
2022-09-04T21:32:28.662Z,69.70
2022-09-04T21:35:32.375Z,70.76
2022-09-04T21:38:25.048Z,69.48
2022-09-04T21:41:27.087Z,68.97
2022-09-04T21:44:02.869Z,67.66
2022-09-04T21:47:07.277Z,70.97
2022-09-04T21:49:47.650Z,69.69
2022-09-04T21:52:31.392Z,70.12
2022-09-04T22:00:04.676Z,70.13
2022-09-04T22:02:26.632Z,71.48
2022-09-04T22:02:37.310Z,73.85
2022-09-04T22:04:44.735Z,72.87
2022-09-04T22:12:13.118Z,74.32
2022-09-04T22:13:39.302Z,73.59
2022-09-04T22:13:49.184Z,72.81
2022-09-04T22:16:41.973Z,73.22
2022-09-04T22:19:35.612Z,73.34
2022-09-04T22:22:40.171Z,75.21
2022-09-04T22:26:09.142Z,75.25
2022-09-04T22:29:08.140Z,73.87
2022-09-04T22:32:14.791Z,76.38
2022-09-04T22:35:21.116Z,76.21
2022-09-04T22:38:19.002Z,75.54
2022-09-04T22:41:00.518Z,74.76
2022-09-04T22:43:29.714Z,74.98
2022-09-04T22:47:23.369Z,76.79
2022-09-04T22:50:25.292Z,76.67
2022-09-04T22:53:30.117Z,75.20
2022-09-04T22:56:22.701Z,74.88
2022-09-04T22:59:27.062Z,76.89
2022-09-04T23:02:13.495Z,76.72
2022-09-04T23:05:11.699Z,76.46
2022-09-04T23:13:53.539Z,75.73
2022-09-04T23:13:54.383Z,75.86
2022-09-04T23:14:46.234Z,78.45
2022-09-04T23:17:58.315Z,78.11
2022-09-04T23:26:50.914Z,76.04
2022-09-04T23:26:52.998Z,76.54
2022-09-04T23:27:12.297Z,77.48
2022-09-04T23:30:18.221Z,77.60
2022-09-04T23:33:04.199Z,77.03
2022-09-04T23:36:01.631Z,79.11
2022-09-04T23:38:53.105Z,80.25
2022-09-04T23:41:59.896Z,80.49
2022-09-04T23:45:09.324Z,82.01
2022-09-04T23:48:16.979Z,81.49
2022-09-04T23:50:58.251Z,81.25
2022-09-04T23:53:28.271Z,80.14
2022-09-04T23:56:05.274Z,81.13
2022-09-04T23:59:12.095Z,83.62
